Terminal Aerodrome Forecast
Issued by NWS Wilmington, OH

Current Version | Previous Version | Text Only | Print | Product List | Glossary Off
Versions: 1 2 3 4 5 6 7 8 9 10 11 12 13

936
FTUS41 KILN 191120
TAFILN
TAF
KILN 191120Z 1912/2012 21004KT P6SM VCSH BKN100
     FM191500 24006KT P6SM SCT090
     FM192000 27009KT P6SM SCT045
     FM200100 33004KT P6SM SKC=

USA.gov is the U.S. government's official web portal to all federal, state and local government web resources and services.